Portada
METAR-TAF:

METAR-TAF

Aeroports :

Changsha, Xina

latitud: 28-11N, longitud: 113-13E, altitud: 66 m

Observació

L'informe es va fer fa 29 minuts, a les 19:00 UTC
Vent 12 kt del Nord/Nord-Oest
Temperatura 14°C
Humitat 94%
Pressió 1023 hPa
Visibilitat: 3000 m
Cel ennuvolat a una alçada de 700 ft
pluja, boirina

METAR: ZGHA 201900Z 33006MPS 3000 -RA BR BKN007 14/13 Q1023 NOSIG

Hora: 03:29 (19:29 UTC)

Pronòstic

L'informe es va fer fa 4 hores i 28 minuts, a les 15:01 UTC
Pronòstic vàlid del 20 a les 18 UTC al 21 a les 18 UTC
Vent 8 kt del Nord
Visibilitat: 4000 m
Núvols disperses a una alçada de 4000 ft
boirina

TAF: ZGHA 201501Z 2018/2118 35004MPS 4000 BR SCT040 TX21/2107Z TN14/2022Z

Observacions i pronòstics meteorològics de més de 4000 aeroports (METAR i TAF).

Les estacions disponibles són els punts grocs i vermells al mapa.

Posi el ratolí al punt desitjat per veure el nom de l'estació.

Feu clic per veure les observacions i els pronòstics meteorològics.

Per canviar el mapa: feu clic els botons verds amb una creu de color negre per apropar; al botó verd amb un guió per allunyar la imatge; o en les fletxes verdes per a mapes adjacents.


METAR-TAF: